x

Bay Of Campeche - 214 Nm Ne Of Veracruz, Mx (42055) Wave Buoy

8:50am - Mon 6th Jul 2015 All times are UTC.

  • Sig Wave height 3.9ft
  • Swell Direction
  • Peak Period 5s
  • Average Period 4s
  • Wind
    18mph, 20mph gusts
  • Sea Temp 84°f
  • Air Temp 84°f
  • Sea Pressure 1015.6mb

More Historic Weather Station data

Upgrade to MSW Pro to gain access to the past 30 days of data for over 8000 Wavebouys and Weather Stations around the globe.

Join Pro

Comparision Forecast

View Surf forecast
   
Mon 07/06 8:50am 4ft 5s 4s 18 20 mph 1015.6mb 84f 84f
7:50am 4ft 5s 4s 18 22 mph 1016mb 84f 84f
6:50am 4ft 6s 4s 20 22 mph 1016.6mb 84f 84f
5:50am 3.5ft 6s 4s 18 22 mph 1017.1mb 84f 84f
4:50am 3.5ft 5s 4s 20 22 mph 1017.2mb 84f 84f
3:50am 3.5ft 6s 4s 18 20 mph 1016.7mb 84f 84f
2:50am 3.5ft 6s 4s 18 20 mph 1016mb 84f 84f
1:50am 3.5ft 6s 4s 16 18 mph 1015.5mb 85f 83f
12:50am 3.5ft 6s 4s 16 20 mph 1015.3mb 85f 83f
Sun 07/05 11:50pm 3.5ft 6s 4s 16 18 mph 1015.1mb 85f 84f
10:50pm 3.5ft 6s 5s 16 18 mph 1015.1mb 85f 84f
9:50pm 3.5ft 6s 5s 16 18 mph 1015.6mb 85f 84f
8:50pm 3.5ft 6s 5s 16 18 mph 1016.3mb 85f 84f
7:50pm 4ft 6s 5s 16 18 mph 1016.6mb 85f 84f
6:50pm 3.5ft 6s 4s 13 16 mph 1017mb 85f 84f
5:50pm 3.5ft 6s 5s 16 20 mph 1017.5mb 85f 84f
4:50pm 4ft 6s 5s 16 18 mph 1017.6mb 85f 84f
3:50pm 4ft 6s 5s 16 18 mph 1017.5mb 84f 84f
2:50pm 4ft 6s 5s 13 16 mph 1017.2mb 84f 84f
1:50pm 4ft 6s 5s 16 18 mph 1016.9mb 84f 84f
12:50pm 4.5ft 6s 5s 16 18 mph 1016.7mb 84f 84f
11:50am 4.5ft 6s 5s 18 22 mph 1016mb 84f 83f
10:50am 4ft 6s 5s 18 20 mph 1015.4mb 84f 84f
9:50am 4.5ft 6s 5s 18 20 mph 1015.1mb 84f 83f
8:50am 4.5ft 6s 4s 20 22 mph 1015.1mb 84f 83f
7:50am 4.5ft 6s 5s 20 22 mph 1015.1mb 84f 84f
6:50am 4.5ft 7s 5s 20 22 mph 1015.7mb 84f 84f
5:50am 4.5ft 6s 5s 18 22 mph 1016mb 84f 84f
4:50am 4.5ft 6s 5s 20 22 mph 1015.9mb 84f 83f
3:50am 4ft 6s 5s 16 18 mph 1015.5mb 84f 83f
2:50am 4.5ft 6s 5s 16 18 mph 1015mb 84f 83f
1:50am 4ft 6s 5s 16 18 mph 1014.3mb 84f 83f
12:50am 3.5ft 6s 5s 16 18 mph 1013.9mb 84f 83f
Sat 07/04 11:50pm 4ft 6s 5s 18 20 mph 1013.6mb 85f 84f
10:50pm 4ft 6s 5s 16 20 mph 1013.6mb 85f 84f
9:50pm 4.5ft 6s 5s 13 16 mph 1014.3mb 85f 84f
8:50pm 4.5ft 6s 5s 13 16 mph 1014.8mb 85f 84f
7:50pm 4.5ft 6s 5s 13 16 mph 1015mb 85f 84f
6:50pm 4.5ft 6s 5s 16 18 mph 1015.2mb 84f 84f
5:50pm 4.5ft 6s 5s 16 20 mph 1015.2mb 84f 84f
4:50pm 5ft 6s 5s 18 20 mph 1015.1mb 84f 84f
3:50pm 4.5ft 7s 5s 16 20 mph 1015.3mb 84f 84f
2:50pm 5ft 7s 5s 18 20 mph 1015mb 84f 84f
1:50pm 5.5ft 7s 5s 18 20 mph 1014.6mb 84f 84f
12:50pm 5.5ft 7s 5s 18 20 mph 1014.5mb 84f 84f
11:50am 6ft 7s 5s 20 22 mph 1013.7mb 84f 84f
10:50am 5ft 6s 5s 20 25 mph 1013.1mb 84f 84f
9:50am 5.5ft 6s 5s 22 27 mph 1012.7mb 84f 84f
8:50am 5ft 6s 5s 22 25 mph 1012.8mb 84f 84f
7:50am 4.5ft 6s 5s 22 29 mph 1013.1mb 84f 84f
6:50am 4.5ft 6s 5s 20 25 mph 1013.9mb 84f 84f
5:50am 4.5ft 6s 5s 20 22 mph 1014.3mb 84f 83f
4:50am 4ft 6s 5s 18 22 mph 1014.8mb 84f 84f
3:50am 4ft 6s 5s 18 20 mph 1014.8mb 84f 83f
2:50am 4.5ft 6s 5s 16 18 mph 1014.5mb 84f 83f
1:50am 4.5ft 6s 5s 16 18 mph 1014mb 84f 83f
12:50am 4.5ft 7s 5s 16 20 mph 1013.4mb 84f 83f
Fri 07/03 11:50pm 4ft 5s 4s 18 20 mph 1013mb 84f 84f
10:50pm 4ft 5s 4s 18 20 mph 1013.1mb 84f 84f
9:50pm 4ft 6s 4s 16 18 mph 1013.4mb 84f 84f
8:50pm 4.5ft 6s 4s 18 20 mph 1013.2mb 84f 83f
7:50pm 4.5ft 6s 5s 18 22 mph 1013.3mb 84f 83f
6:50pm 4.5ft 6s 5s 20 25 mph 1013.4mb 84f 83f
5:50pm 5ft 6s 5s 20 25 mph 1014.1mb 84f 83f
4:50pm 4.5ft 6s 5s 20 25 mph 1014.3mb 84f 83f
3:50pm 4.5ft 6s 5s 20 22 mph 1014.7mb 84f 84f
2:50pm 5ft 6s 5s 20 25 mph 1014.5mb 84f 83f
1:50pm 5ft 6s 5s 20 25 mph 1014.6mb 84f 83f
12:50pm 4.5ft 6s 5s 20 22 mph 1014.3mb 84f 83f
11:50am 4.5ft 6s 5s 22 25 mph 1013.7mb 84f 83f
10:50am 4.5ft 6s 5s 20 22 mph 1013.2mb 84f 83f
9:50am 4.5ft 6s 5s 20 25 mph 1013mb 84f 83f
8:50am 4.5ft 6s 5s 20 22 mph 1012.7mb 84f 84f
7:50am 4.5ft 6s 5s 11
mph
1012.6mb 84f 83f
6:50am 5ft 6s 5s 13 16 mph 1013.1mb 84f 83f
5:50am 4.5ft 6s 5s 18 20 mph 1014.1mb 84f 83f
4:50am 4.5ft 6s 5s 22 25 mph 1014.9mb 84f 84f
3:50am 4.5ft 6s 5s 22 25 mph 1014.7mb 84f 84f
2:50am 3.5ft 6s 4s 20 22 mph 1014mb 84f 84f
1:50am 3.5ft 6s 4s 18 22 mph 1013.8mb 84f 83f
12:50am 3.5ft 6s 4s 16 20 mph 1013.2mb 84f 83f
Thu 07/02 11:50pm 3.5ft 6s 4s 18 20 mph 1013.1mb 85f 83f
10:50pm 3.5ft 6s 5s 16 18 mph 1013.3mb 85f 84f
9:50pm 4ft 6s 5s 13 16 mph 1013.7mb 85f 84f
8:50pm 4ft 6s 5s 13 18 mph 1014.2mb 84f 84f
7:50pm 4ft 6s 5s 16 18 mph 1014.6mb 84f 84f
6:50pm 4.5ft 6s 5s 18 20 mph 1015mb 84f 84f
5:50pm 4.5ft 6s 5s 18 20 mph 1015.4mb 84f 84f
4:50pm 4.5ft 6s 5s 13 18 mph 1015.9mb 84f 84f
3:50pm 4.5ft 6s 5s 16 20 mph 1015.6mb 84f 84f
2:50pm 4.5ft 6s 5s 16 20 mph 1015.1mb 84f 84f
1:50pm 4.5ft 6s 5s 16 18 mph 1014.8mb 84f 83f
12:50pm 5ft 6s 5s 18 20 mph 1014.1mb 84f 83f
11:50am 5ft 6s 5s 18 22 mph 1013mb 84f 83f
10:50am 5ft 7s 5s 20 25 mph 1012.9mb 84f 83f